sensor_id;sensor_type;location;lat;lon;timestamp;P1;durP1;ratioP1;P2;durP2;ratioP2
19679;SDS011;9989;48.962;9.182;2023-04-03T00:01:09;6.47;;;3.37;;
19679;SDS011;9989;48.962;9.182;2023-04-03T00:03:36;5.93;;;2.97;;
19679;SDS011;9989;48.962;9.182;2023-04-03T00:06:03;6.83;;;2.90;;
19679;SDS011;9989;48.962;9.182;2023-04-03T00:08:30;7.07;;;3.03;;
19679;SDS011;9989;48.962;9.182;2023-04-03T00:10:57;6.77;;;3.03;;
19679;SDS011;9989;48.962;9.182;2023-04-03T00:13:23;8.10;;;2.87;;
19679;SDS011;9989;48.962;9.182;2023-04-03T00:15:50;7.40;;;3.43;;
19679;SDS011;9989;48.962;9.182;2023-04-03T00:18:16;6.47;;;3.17;;
19679;SDS011;9989;48.962;9.182;2023-04-03T00:20:41;6.20;;;2.63;;
19679;SDS011;9989;48.962;9.182;2023-04-03T00:23:07;7.23;;;3.30;;
19679;SDS011;9989;48.962;9.182;2023-04-03T00:25:33;7.47;;;3.20;;
19679;SDS011;9989;48.962;9.182;2023-04-03T00:28:00;8.50;;;3.93;;
19679;SDS011;9989;48.962;9.182;2023-04-03T00:30:25;6.33;;;3.00;;
19679;SDS011;9989;48.962;9.182;2023-04-03T00:32:51;7.77;;;3.17;;
19679;SDS011;9989;48.962;9.182;2023-04-03T00:35:17;7.03;;;3.53;;
19679;SDS011;9989;48.962;9.182;2023-04-03T00:37:44;9.27;;;3.10;;
19679;SDS011;9989;48.962;9.182;2023-04-03T00:40:10;7.27;;;3.50;;
19679;SDS011;9989;48.962;9.182;2023-04-03T00:42:38;8.07;;;3.50;;
19679;SDS011;9989;48.962;9.182;2023-04-03T00:47:31;8.27;;;3.57;;
19679;SDS011;9989;48.962;9.182;2023-04-03T00:49:57;8.07;;;3.27;;
19679;SDS011;9989;48.962;9.182;2023-04-03T00:52:23;6.60;;;3.33;;
19679;SDS011;9989;48.962;9.182;2023-04-03T00:54:53;8.10;;;3.13;;
19679;SDS011;9989;48.962;9.182;2023-04-03T00:57:22;9.23;;;3.33;;
19679;SDS011;9989;48.962;9.182;2023-04-03T00:59:49;8.23;;;3.47;;
19679;SDS011;9989;48.962;9.182;2023-04-03T01:02:19;7.97;;;3.40;;
19679;SDS011;9989;48.962;9.182;2023-04-03T01:04:45;7.07;;;3.20;;
19679;SDS011;9989;48.962;9.182;2023-04-03T01:07:15;7.67;;;3.10;;
19679;SDS011;9989;48.962;9.182;2023-04-03T01:09:47;7.40;;;3.10;;
19679;SDS011;9989;48.962;9.182;2023-04-03T01:12:15;7.30;;;3.30;;
19679;SDS011;9989;48.962;9.182;2023-04-03T01:14:54;7.00;;;3.30;;
19679;SDS011;9989;48.962;9.182;2023-04-03T01:20:14;8.37;;;3.30;;
19679;SDS011;9989;48.962;9.182;2023-04-03T01:25:34;7.70;;;2.70;;
19679;SDS011;9989;48.962;9.182;2023-04-03T01:28:22;6.17;;;3.10;;
19679;SDS011;9989;48.962;9.182;2023-04-03T01:33:51;7.13;;;3.33;;
19679;SDS011;9989;48.962;9.182;2023-04-03T01:36:21;8.80;;;3.40;;
19679;SDS011;9989;48.962;9.182;2023-04-03T01:38:49;7.93;;;3.50;;
19679;SDS011;9989;48.962;9.182;2023-04-03T01:41:15;8.20;;;3.77;;
19679;SDS011;9989;48.962;9.182;2023-04-03T01:43:41;7.10;;;3.30;;
19679;SDS011;9989;48.962;9.182;2023-04-03T01:46:07;8.23;;;3.67;;
19679;SDS011;9989;48.962;9.182;2023-04-03T01:48:33;9.07;;;4.03;;
19679;SDS011;9989;48.962;9.182;2023-04-03T01:50:59;9.47;;;4.03;;
19679;SDS011;9989;48.962;9.182;2023-04-03T01:53:25;7.10;;;3.37;;
19679;SDS011;9989;48.962;9.182;2023-04-03T01:55:50;6.83;;;3.13;;
19679;SDS011;9989;48.962;9.182;2023-04-03T01:58:16;6.90;;;3.23;;
19679;SDS011;9989;48.962;9.182;2023-04-03T02:00:42;10.07;;;3.60;;
19679;SDS011;9989;48.962;9.182;2023-04-03T02:03:07;8.07;;;3.77;;
19679;SDS011;9989;48.962;9.182;2023-04-03T02:05:33;9.20;;;4.37;;
19679;SDS011;9989;48.962;9.182;2023-04-03T02:07:59;7.97;;;3.53;;
19679;SDS011;9989;48.962;9.182;2023-04-03T02:10:25;9.70;;;3.50;;
19679;SDS011;9989;48.962;9.182;2023-04-03T02:12:51;6.50;;;3.10;;
19679;SDS011;9989;48.962;9.182;2023-04-03T02:15:17;8.60;;;3.43;;
19679;SDS011;9989;48.962;9.182;2023-04-03T02:17:43;9.53;;;3.60;;
19679;SDS011;9989;48.962;9.182;2023-04-03T02:20:09;8.57;;;4.03;;
19679;SDS011;9989;48.962;9.182;2023-04-03T02:22:34;8.63;;;3.70;;
19679;SDS011;9989;48.962;9.182;2023-04-03T02:25:00;8.13;;;4.07;;
19679;SDS011;9989;48.962;9.182;2023-04-03T02:27:26;8.17;;;3.30;;
19679;SDS011;9989;48.962;9.182;2023-04-03T02:29:52;6.73;;;3.10;;
19679;SDS011;9989;48.962;9.182;2023-04-03T02:32:17;11.93;;;3.73;;
19679;SDS011;9989;48.962;9.182;2023-04-03T02:34:43;7.97;;;3.67;;
19679;SDS011;9989;48.962;9.182;2023-04-03T02:37:08;8.87;;;4.73;;
19679;SDS011;9989;48.962;9.182;2023-04-03T02:39:34;7.30;;;3.30;;
19679;SDS011;9989;48.962;9.182;2023-04-03T02:42:00;6.93;;;3.20;;
19679;SDS011;9989;48.962;9.182;2023-04-03T02:44:28;7.97;;;3.37;;
19679;SDS011;9989;48.962;9.182;2023-04-03T02:46:54;7.27;;;3.10;;
19679;SDS011;9989;48.962;9.182;2023-04-03T02:49:20;6.27;;;3.10;;
19679;SDS011;9989;48.962;9.182;2023-04-03T02:51:45;8.77;;;3.27;;
19679;SDS011;9989;48.962;9.182;2023-04-03T02:54:11;6.67;;;2.83;;
19679;SDS011;9989;48.962;9.182;2023-04-03T02:56:36;8.07;;;3.60;;
19679;SDS011;9989;48.962;9.182;2023-04-03T02:59:02;6.20;;;3.10;;
19679;SDS011;9989;48.962;9.182;2023-04-03T03:01:28;9.03;;;3.83;;
19679;SDS011;9989;48.962;9.182;2023-04-03T03:03:56;7.53;;;3.40;;
19679;SDS011;9989;48.962;9.182;2023-04-03T03:06:22;7.67;;;3.90;;
19679;SDS011;9989;48.962;9.182;2023-04-03T03:08:48;12.07;;;4.60;;
19679;SDS011;9989;48.962;9.182;2023-04-03T03:11:14;7.03;;;3.50;;
19679;SDS011;9989;48.962;9.182;2023-04-03T03:13:39;9.73;;;3.47;;
19679;SDS011;9989;48.962;9.182;2023-04-03T03:16:05;7.27;;;3.70;;
19679;SDS011;9989;48.962;9.182;2023-04-03T03:18:31;7.10;;;3.70;;
19679;SDS011;9989;48.962;9.182;2023-04-03T03:20:59;8.17;;;3.10;;
19679;SDS011;9989;48.962;9.182;2023-04-03T03:23:26;6.93;;;3.03;;
19679;SDS011;9989;48.962;9.182;2023-04-03T03:26:00;7.87;;;3.20;;
19679;SDS011;9989;48.962;9.182;2023-04-03T03:28:27;7.13;;;3.50;;
19679;SDS011;9989;48.962;9.182;2023-04-03T03:30:53;6.60;;;3.37;;
19679;SDS011;9989;48.962;9.182;2023-04-03T03:33:19;6.73;;;3.40;;
19679;SDS011;9989;48.962;9.182;2023-04-03T03:35:45;11.93;;;5.00;;
19679;SDS011;9989;48.962;9.182;2023-04-03T03:38:11;19.53;;;10.53;;
19679;SDS011;9989;48.962;9.182;2023-04-03T03:40:37;10.23;;;5.87;;
19679;SDS011;9989;48.962;9.182;2023-04-03T03:43:02;18.23;;;10.90;;
19679;SDS011;9989;48.962;9.182;2023-04-03T03:45:28;11.33;;;7.17;;
19679;SDS011;9989;48.962;9.182;2023-04-03T03:47:54;9.97;;;5.30;;
19679;SDS011;9989;48.962;9.182;2023-04-03T03:50:20;10.80;;;6.23;;
19679;SDS011;9989;48.962;9.182;2023-04-03T03:52:45;12.73;;;6.33;;
19679;SDS011;9989;48.962;9.182;2023-04-03T03:55:11;14.10;;;8.30;;
19679;SDS011;9989;48.962;9.182;2023-04-03T03:57:37;13.90;;;8.37;;
19679;SDS011;9989;48.962;9.182;2023-04-03T04:00:02;9.60;;;5.30;;
19679;SDS011;9989;48.962;9.182;2023-04-03T04:02:29;8.13;;;4.00;;
19679;SDS011;9989;48.962;9.182;2023-04-03T04:04:55;6.73;;;2.93;;
19679;SDS011;9989;48.962;9.182;2023-04-03T04:07:21;5.97;;;3.13;;
19679;SDS011;9989;48.962;9.182;2023-04-03T04:09:46;7.93;;;3.43;;
19679;SDS011;9989;48.962;9.182;2023-04-03T04:12:12;8.00;;;3.87;;
19679;SDS011;9989;48.962;9.182;2023-04-03T04:14:38;6.53;;;3.20;;
19679;SDS011;9989;48.962;9.182;2023-04-03T04:17:03;8.07;;;3.20;;
19679;SDS011;9989;48.962;9.182;2023-04-03T04:19:29;13.23;;;3.60;;
19679;SDS011;9989;48.962;9.182;2023-04-03T04:21:54;8.60;;;3.80;;
19679;SDS011;9989;48.962;9.182;2023-04-03T04:24:20;10.53;;;3.33;;
19679;SDS011;9989;48.962;9.182;2023-04-03T04:26:47;7.33;;;3.60;;
19679;SDS011;9989;48.962;9.182;2023-04-03T04:29:13;7.00;;;3.20;;
19679;SDS011;9989;48.962;9.182;2023-04-03T04:31:39;6.33;;;3.03;;
19679;SDS011;9989;48.962;9.182;2023-04-03T04:34:05;6.87;;;3.43;;
19679;SDS011;9989;48.962;9.182;2023-04-03T04:36:30;7.53;;;3.47;;
19679;SDS011;9989;48.962;9.182;2023-04-03T04:38:56;7.17;;;3.33;;
19679;SDS011;9989;48.962;9.182;2023-04-03T04:41:23;6.33;;;3.20;;
19679;SDS011;9989;48.962;9.182;2023-04-03T04:43:49;6.50;;;3.23;;
19679;SDS011;9989;48.962;9.182;2023-04-03T04:46:16;8.30;;;3.00;;
19679;SDS011;9989;48.962;9.182;2023-04-03T04:48:42;7.60;;;3.50;;
19679;SDS011;9989;48.962;9.182;2023-04-03T04:51:08;7.93;;;3.67;;
19679;SDS011;9989;48.962;9.182;2023-04-03T04:53:34;9.30;;;3.90;;
19679;SDS011;9989;48.962;9.182;2023-04-03T04:56:00;8.77;;;4.40;;
19679;SDS011;9989;48.962;9.182;2023-04-03T04:58:26;7.77;;;3.97;;
19679;SDS011;9989;48.962;9.182;2023-04-03T05:01:25;7.43;;;3.63;;
19679;SDS011;9989;48.962;9.182;2023-04-03T05:03:43;9.50;;;4.40;;
19679;SDS011;9989;48.962;9.182;2023-04-03T05:06:09;6.70;;;3.60;;
19679;SDS011;9989;48.962;9.182;2023-04-03T05:08:35;8.13;;;3.23;;
19679;SDS011;9989;48.962;9.182;2023-04-03T05:13:51;7.13;;;3.20;;
19679;SDS011;9989;48.962;9.182;2023-04-03T05:16:16;13.30;;;5.93;;
19679;SDS011;9989;48.962;9.182;2023-04-03T05:18:43;8.23;;;4.33;;
19679;SDS011;9989;48.962;9.182;2023-04-03T05:21:08;9.27;;;4.13;;
19679;SDS011;9989;48.962;9.182;2023-04-03T05:23:34;7.73;;;3.73;;
19679;SDS011;9989;48.962;9.182;2023-04-03T05:25:59;8.33;;;4.30;;
19679;SDS011;9989;48.962;9.182;2023-04-03T05:28:25;7.10;;;3.27;;
19679;SDS011;9989;48.962;9.182;2023-04-03T05:30:54;7.07;;;3.30;;
19679;SDS011;9989;48.962;9.182;2023-04-03T05:33:23;9.13;;;3.63;;
19679;SDS011;9989;48.962;9.182;2023-04-03T05:35:51;8.27;;;3.67;;
19679;SDS011;9989;48.962;9.182;2023-04-03T05:38:17;9.17;;;3.93;;
19679;SDS011;9989;48.962;9.182;2023-04-03T05:40:43;8.13;;;3.63;;
19679;SDS011;9989;48.962;9.182;2023-04-03T05:43:09;8.17;;;3.60;;
19679;SDS011;9989;48.962;9.182;2023-04-03T05:45:35;7.77;;;3.40;;
19679;SDS011;9989;48.962;9.182;2023-04-03T05:48:01;7.43;;;2.93;;
19679;SDS011;9989;48.962;9.182;2023-04-03T05:50:26;8.40;;;3.70;;
19679;SDS011;9989;48.962;9.182;2023-04-03T05:52:53;6.07;;;2.97;;
19679;SDS011;9989;48.962;9.182;2023-04-03T05:55:21;6.87;;;3.37;;
19679;SDS011;9989;48.962;9.182;2023-04-03T05:57:47;7.67;;;3.63;;
19679;SDS011;9989;48.962;9.182;2023-04-03T06:00:13;8.50;;;4.00;;
19679;SDS011;9989;48.962;9.182;2023-04-03T06:02:42;6.93;;;3.33;;
19679;SDS011;9989;48.962;9.182;2023-04-03T06:05:08;6.57;;;3.17;;
19679;SDS011;9989;48.962;9.182;2023-04-03T06:07:36;8.30;;;4.17;;
19679;SDS011;9989;48.962;9.182;2023-04-03T06:10:02;10.40;;;5.27;;
19679;SDS011;9989;48.962;9.182;2023-04-03T06:12:28;12.93;;;5.80;;
19679;SDS011;9989;48.962;9.182;2023-04-03T06:14:54;11.27;;;5.00;;
19679;SDS011;9989;48.962;9.182;2023-04-03T06:17:20;9.53;;;4.33;;
19679;SDS011;9989;48.962;9.182;2023-04-03T06:19:46;8.77;;;4.87;;
19679;SDS011;9989;48.962;9.182;2023-04-03T06:22:12;14.13;;;5.83;;
19679;SDS011;9989;48.962;9.182;2023-04-03T06:24:39;8.40;;;3.93;;
19679;SDS011;9989;48.962;9.182;2023-04-03T06:27:05;8.73;;;4.20;;
19679;SDS011;9989;48.962;9.182;2023-04-03T06:29:30;7.43;;;3.50;;
19679;SDS011;9989;48.962;9.182;2023-04-03T06:31:56;7.57;;;3.83;;
19679;SDS011;9989;48.962;9.182;2023-04-03T06:34:22;8.37;;;3.60;;
19679;SDS011;9989;48.962;9.182;2023-04-03T06:36:47;11.30;;;4.07;;
19679;SDS011;9989;48.962;9.182;2023-04-03T06:39:17;9.20;;;4.27;;
19679;SDS011;9989;48.962;9.182;2023-04-03T06:41:45;7.93;;;3.60;;
19679;SDS011;9989;48.962;9.182;2023-04-03T06:44:11;10.30;;;4.30;;
19679;SDS011;9989;48.962;9.182;2023-04-03T06:46:38;9.40;;;4.00;;
19679;SDS011;9989;48.962;9.182;2023-04-03T06:49:04;8.43;;;3.80;;
19679;SDS011;9989;48.962;9.182;2023-04-03T06:51:32;7.93;;;3.87;;
19679;SDS011;9989;48.962;9.182;2023-04-03T06:53:59;13.83;;;5.80;;
19679;SDS011;9989;48.962;9.182;2023-04-03T06:56:25;9.47;;;4.53;;
19679;SDS011;9989;48.962;9.182;2023-04-03T06:58:54;40.83;;;17.40;;
19679;SDS011;9989;48.962;9.182;2023-04-03T07:01:22;30.20;;;13.57;;
19679;SDS011;9989;48.962;9.182;2023-04-03T07:03:49;22.87;;;12.23;;
19679;SDS011;9989;48.962;9.182;2023-04-03T07:06:16;16.50;;;9.00;;
19679;SDS011;9989;48.962;9.182;2023-04-03T07:08:43;11.60;;;7.07;;
19679;SDS011;9989;48.962;9.182;2023-04-03T07:11:09;8.90;;;4.43;;
19679;SDS011;9989;48.962;9.182;2023-04-03T07:13:35;7.87;;;4.40;;
19679;SDS011;9989;48.962;9.182;2023-04-03T07:16:01;10.70;;;5.50;;
19679;SDS011;9989;48.962;9.182;2023-04-03T07:18:29;11.47;;;6.80;;
19679;SDS011;9989;48.962;9.182;2023-04-03T07:20:55;8.07;;;4.27;;
19679;SDS011;9989;48.962;9.182;2023-04-03T07:23:21;11.93;;;4.20;;
19679;SDS011;9989;48.962;9.182;2023-04-03T07:25:48;9.93;;;5.10;;
19679;SDS011;9989;48.962;9.182;2023-04-03T07:28:16;8.60;;;3.83;;
19679;SDS011;9989;48.962;9.182;2023-04-03T07:30:46;9.20;;;4.03;;
19679;SDS011;9989;48.962;9.182;2023-04-03T07:33:15;8.73;;;3.80;;
19679;SDS011;9989;48.962;9.182;2023-04-03T07:35:42;10.43;;;4.87;;
19679;SDS011;9989;48.962;9.182;2023-04-03T07:38:08;8.83;;;4.27;;
19679;SDS011;9989;48.962;9.182;2023-04-03T07:40:35;10.87;;;4.10;;
19679;SDS011;9989;48.962;9.182;2023-04-03T07:43:01;9.80;;;3.93;;
19679;SDS011;9989;48.962;9.182;2023-04-03T07:45:27;8.40;;;4.40;;
19679;SDS011;9989;48.962;9.182;2023-04-03T07:47:53;9.83;;;4.47;;
19679;SDS011;9989;48.962;9.182;2023-04-03T07:50:19;7.83;;;4.07;;
19679;SDS011;9989;48.962;9.182;2023-04-03T07:52:45;8.70;;;4.40;;
19679;SDS011;9989;48.962;9.182;2023-04-03T07:55:11;9.30;;;4.27;;
19679;SDS011;9989;48.962;9.182;2023-04-03T07:57:36;7.70;;;3.83;;
19679;SDS011;9989;48.962;9.182;2023-04-03T08:00:05;10.27;;;4.27;;
19679;SDS011;9989;48.962;9.182;2023-04-03T08:02:31;9.03;;;4.10;;
19679;SDS011;9989;48.962;9.182;2023-04-03T08:04:57;9.33;;;4.20;;
19679;SDS011;9989;48.962;9.182;2023-04-03T08:07:23;8.20;;;4.20;;
19679;SDS011;9989;48.962;9.182;2023-04-03T08:09:50;8.40;;;4.27;;
19679;SDS011;9989;48.962;9.182;2023-04-03T08:12:16;9.83;;;4.30;;
19679;SDS011;9989;48.962;9.182;2023-04-03T08:14:42;8.83;;;3.80;;
19679;SDS011;9989;48.962;9.182;2023-04-03T08:17:08;10.30;;;4.20;;
19679;SDS011;9989;48.962;9.182;2023-04-03T08:19:36;8.53;;;3.80;;
19679;SDS011;9989;48.962;9.182;2023-04-03T08:22:05;11.57;;;4.27;;
19679;SDS011;9989;48.962;9.182;2023-04-03T08:24:32;8.50;;;3.70;;
19679;SDS011;9989;48.962;9.182;2023-04-03T08:26:58;7.70;;;3.60;;
19679;SDS011;9989;48.962;9.182;2023-04-03T08:29:24;8.57;;;4.17;;
19679;SDS011;9989;48.962;9.182;2023-04-03T08:31:50;8.23;;;4.30;;
19679;SDS011;9989;48.962;9.182;2023-04-03T08:34:16;9.07;;;4.13;;
19679;SDS011;9989;48.962;9.182;2023-04-03T08:36:42;7.30;;;4.30;;
19679;SDS011;9989;48.962;9.182;2023-04-03T08:39:08;7.60;;;3.80;;
19679;SDS011;9989;48.962;9.182;2023-04-03T08:49:45;8.77;;;4.00;;
19679;SDS011;9989;48.962;9.182;2023-04-03T08:52:19;8.53;;;4.23;;
19679;SDS011;9989;48.962;9.182;2023-04-03T08:54:57;16.57;;;8.57;;
19679;SDS011;9989;48.962;9.182;2023-04-03T08:57:30;8.33;;;3.87;;
19679;SDS011;9989;48.962;9.182;2023-04-03T09:00:23;7.73;;;3.20;;
19679;SDS011;9989;48.962;9.182;2023-04-03T09:02:52;10.17;;;3.50;;
19679;SDS011;9989;48.962;9.182;2023-04-03T09:05:27;9.93;;;4.47;;
19679;SDS011;9989;48.962;9.182;2023-04-03T09:08:12;9.93;;;4.00;;
19679;SDS011;9989;48.962;9.182;2023-04-03T09:10:45;6.77;;;3.20;;
19679;SDS011;9989;48.962;9.182;2023-04-03T09:13:30;6.20;;;2.97;;
19679;SDS011;9989;48.962;9.182;2023-04-03T09:16:04;10.70;;;3.77;;
19679;SDS011;9989;48.962;9.182;2023-04-03T09:18:42;8.87;;;3.90;;
19679;SDS011;9989;48.962;9.182;2023-04-03T09:23:46;6.67;;;3.27;;
19679;SDS011;9989;48.962;9.182;2023-04-03T09:26:14;6.57;;;3.60;;
19679;SDS011;9989;48.962;9.182;2023-04-03T09:28:48;10.83;;;4.13;;
19679;SDS011;9989;48.962;9.182;2023-04-03T09:33:50;11.27;;;3.80;;
19679;SDS011;9989;48.962;9.182;2023-04-03T09:39:27;7.70;;;3.13;;
19679;SDS011;9989;48.962;9.182;2023-04-03T09:42:00;9.00;;;3.53;;
19679;SDS011;9989;48.962;9.182;2023-04-03T09:49:43;9.43;;;3.50;;
19679;SDS011;9989;48.962;9.182;2023-04-03T09:52:19;7.40;;;3.20;;
19679;SDS011;9989;48.962;9.182;2023-04-03T09:54:49;7.50;;;3.73;;
19679;SDS011;9989;48.962;9.182;2023-04-03T09:57:14;10.23;;;3.70;;
19679;SDS011;9989;48.962;9.182;2023-04-03T09:59:42;10.20;;;3.30;;
19679;SDS011;9989;48.962;9.182;2023-04-03T10:04:56;7.27;;;3.50;;
19679;SDS011;9989;48.962;9.182;2023-04-03T10:07:26;7.50;;;3.50;;
19679;SDS011;9989;48.962;9.182;2023-04-03T10:10:35;8.73;;;3.30;;
19679;SDS011;9989;48.962;9.182;2023-04-03T10:16:23;10.67;;;3.80;;
19679;SDS011;9989;48.962;9.182;2023-04-03T10:18:49;7.27;;;2.90;;
19679;SDS011;9989;48.962;9.182;2023-04-03T10:32:02;7.47;;;3.23;;
19679;SDS011;9989;48.962;9.182;2023-04-03T10:34:37;7.73;;;3.60;;
19679;SDS011;9989;48.962;9.182;2023-04-03T10:37:18;8.70;;;3.83;;
19679;SDS011;9989;48.962;9.182;2023-04-03T10:39:59;8.70;;;3.80;;
19679;SDS011;9989;48.962;9.182;2023-04-03T10:42:50;10.37;;;4.37;;
19679;SDS011;9989;48.962;9.182;2023-04-03T11:01:58;8.60;;;3.70;;
19679;SDS011;9989;48.962;9.182;2023-04-03T11:04:27;11.10;;;3.57;;
19679;SDS011;9989;48.962;9.182;2023-04-03T11:09:29;10.93;;;5.07;;
19679;SDS011;9989;48.962;9.182;2023-04-03T11:12:03;6.80;;;3.70;;
19679;SDS011;9989;48.962;9.182;2023-04-03T11:14:34;8.97;;;3.30;;
19679;SDS011;9989;48.962;9.182;2023-04-03T11:17:06;8.07;;;3.63;;
19679;SDS011;9989;48.962;9.182;2023-04-03T11:22:36;10.73;;;4.20;;
19679;SDS011;9989;48.962;9.182;2023-04-03T11:25:14;7.30;;;3.50;;
19679;SDS011;9989;48.962;9.182;2023-04-03T11:27:48;8.80;;;4.10;;
19679;SDS011;9989;48.962;9.182;2023-04-03T11:36:00;8.10;;;2.93;;
19679;SDS011;9989;48.962;9.182;2023-04-03T11:38:41;7.67;;;3.13;;
19679;SDS011;9989;48.962;9.182;2023-04-03T11:41:10;5.03;;;2.73;;
19679;SDS011;9989;48.962;9.182;2023-04-03T11:43:58;8.27;;;3.73;;
19679;SDS011;9989;48.962;9.182;2023-04-03T12:05:54;6.53;;;2.17;;
19679;SDS011;9989;48.962;9.182;2023-04-03T12:08:28;9.90;;;3.60;;
19679;SDS011;9989;48.962;9.182;2023-04-03T12:16:20;6.60;;;2.93;;
19679;SDS011;9989;48.962;9.182;2023-04-03T12:19:03;6.63;;;2.97;;
19679;SDS011;9989;48.962;9.182;2023-04-03T12:24:26;6.77;;;2.53;;
19679;SDS011;9989;48.962;9.182;2023-04-03T12:29:59;6.43;;;2.37;;
19679;SDS011;9989;48.962;9.182;2023-04-03T12:35:39;7.77;;;3.83;;
19679;SDS011;9989;48.962;9.182;2023-04-03T12:41:14;6.57;;;2.47;;
19679;SDS011;9989;48.962;9.182;2023-04-03T12:46:49;7.43;;;2.70;;
19679;SDS011;9989;48.962;9.182;2023-04-03T12:52:04;5.57;;;2.30;;
19679;SDS011;9989;48.962;9.182;2023-04-03T12:54:41;6.37;;;2.40;;
19679;SDS011;9989;48.962;9.182;2023-04-03T12:59:52;6.20;;;2.57;;
19679;SDS011;9989;48.962;9.182;2023-04-03T13:04:55;5.73;;;2.80;;
19679;SDS011;9989;48.962;9.182;2023-04-03T13:07:32;6.13;;;2.57;;
19679;SDS011;9989;48.962;9.182;2023-04-03T13:12:34;5.73;;;2.40;;
19679;SDS011;9989;48.962;9.182;2023-04-03T13:15:02;4.90;;;2.00;;
19679;SDS011;9989;48.962;9.182;2023-04-03T13:17:42;5.40;;;2.17;;
19679;SDS011;9989;48.962;9.182;2023-04-03T13:20:09;5.17;;;2.23;;
19679;SDS011;9989;48.962;9.182;2023-04-03T13:22:44;4.40;;;2.10;;
19679;SDS011;9989;48.962;9.182;2023-04-03T13:25:35;7.33;;;2.60;;
19679;SDS011;9989;48.962;9.182;2023-04-03T13:28:03;10.10;;;4.50;;
19679;SDS011;9989;48.962;9.182;2023-04-03T13:30:31;7.97;;;3.20;;
19679;SDS011;9989;48.962;9.182;2023-04-03T13:33:00;10.70;;;5.97;;
19679;SDS011;9989;48.962;9.182;2023-04-03T13:35:37;12.43;;;4.80;;
19679;SDS011;9989;48.962;9.182;2023-04-03T13:38:27;6.73;;;3.50;;
19679;SDS011;9989;48.962;9.182;2023-04-03T13:40:54;5.77;;;2.63;;
19679;SDS011;9989;48.962;9.182;2023-04-03T13:43:25;6.10;;;2.63;;
19679;SDS011;9989;48.962;9.182;2023-04-03T13:48:38;10.30;;;4.23;;
19679;SDS011;9989;48.962;9.182;2023-04-03T13:56:23;6.93;;;3.30;;
19679;SDS011;9989;48.962;9.182;2023-04-03T13:59:04;7.43;;;3.53;;
19679;SDS011;9989;48.962;9.182;2023-04-03T14:01:48;8.70;;;4.60;;
19679;SDS011;9989;48.962;9.182;2023-04-03T14:04:25;7.73;;;3.40;;
19679;SDS011;9989;48.962;9.182;2023-04-03T14:06:54;14.80;;;10.93;;
19679;SDS011;9989;48.962;9.182;2023-04-03T14:09:20;10.53;;;6.87;;
19679;SDS011;9989;48.962;9.182;2023-04-03T14:11:48;9.17;;;5.00;;
19679;SDS011;9989;48.962;9.182;2023-04-03T14:14:21;8.57;;;3.20;;
19679;SDS011;9989;48.962;9.182;2023-04-03T14:16:51;9.43;;;3.20;;
19679;SDS011;9989;48.962;9.182;2023-04-03T14:19:24;6.00;;;2.53;;
19679;SDS011;9989;48.962;9.182;2023-04-03T14:21:52;7.87;;;3.30;;
19679;SDS011;9989;48.962;9.182;2023-04-03T14:24:20;6.50;;;3.30;;
19679;SDS011;9989;48.962;9.182;2023-04-03T14:26:47;6.83;;;2.60;;
19679;SDS011;9989;48.962;9.182;2023-04-03T14:29:15;6.83;;;2.20;;
19679;SDS011;9989;48.962;9.182;2023-04-03T14:31:42;5.73;;;2.33;;
19679;SDS011;9989;48.962;9.182;2023-04-03T14:34:09;7.43;;;3.10;;
19679;SDS011;9989;48.962;9.182;2023-04-03T14:36:36;5.53;;;2.10;;
19679;SDS011;9989;48.962;9.182;2023-04-03T14:39:03;7.03;;;2.40;;
19679;SDS011;9989;48.962;9.182;2023-04-03T14:41:31;8.50;;;2.90;;
19679;SDS011;9989;48.962;9.182;2023-04-03T14:43:57;5.20;;;2.40;;
19679;SDS011;9989;48.962;9.182;2023-04-03T14:46:26;6.37;;;2.67;;
19679;SDS011;9989;48.962;9.182;2023-04-03T14:48:57;31.80;;;12.33;;
19679;SDS011;9989;48.962;9.182;2023-04-03T14:51:23;29.47;;;11.33;;
19679;SDS011;9989;48.962;9.182;2023-04-03T14:53:49;21.23;;;8.47;;
19679;SDS011;9989;48.962;9.182;2023-04-03T14:56:16;9.13;;;4.40;;
19679;SDS011;9989;48.962;9.182;2023-04-03T14:58:48;8.90;;;3.10;;
19679;SDS011;9989;48.962;9.182;2023-04-03T15:01:17;5.90;;;2.43;;
19679;SDS011;9989;48.962;9.182;2023-04-03T15:03:43;5.83;;;2.57;;
19679;SDS011;9989;48.962;9.182;2023-04-03T15:06:11;7.83;;;2.80;;
19679;SDS011;9989;48.962;9.182;2023-04-03T15:08:37;5.07;;;2.10;;
19679;SDS011;9989;48.962;9.182;2023-04-03T15:11:03;9.90;;;2.97;;
19679;SDS011;9989;48.962;9.182;2023-04-03T15:13:29;6.73;;;2.87;;
19679;SDS011;9989;48.962;9.182;2023-04-03T15:15:54;6.27;;;2.60;;
19679;SDS011;9989;48.962;9.182;2023-04-03T15:18:22;6.03;;;2.73;;
19679;SDS011;9989;48.962;9.182;2023-04-03T15:20:53;8.33;;;3.73;;
19679;SDS011;9989;48.962;9.182;2023-04-03T15:23:19;6.20;;;2.70;;
19679;SDS011;9989;48.962;9.182;2023-04-03T15:25:46;6.17;;;2.60;;
19679;SDS011;9989;48.962;9.182;2023-04-03T15:28:17;7.63;;;3.13;;
19679;SDS011;9989;48.962;9.182;2023-04-03T15:31:03;8.03;;;2.83;;
19679;SDS011;9989;48.962;9.182;2023-04-03T15:33:30;9.13;;;3.97;;
19679;SDS011;9989;48.962;9.182;2023-04-03T15:35:56;11.73;;;5.50;;
19679;SDS011;9989;48.962;9.182;2023-04-03T15:38:21;16.83;;;8.47;;
19679;SDS011;9989;48.962;9.182;2023-04-03T15:40:47;11.13;;;4.60;;
19679;SDS011;9989;48.962;9.182;2023-04-03T15:43:13;9.03;;;3.70;;
19679;SDS011;9989;48.962;9.182;2023-04-03T15:45:40;7.53;;;2.97;;
19679;SDS011;9989;48.962;9.182;2023-04-03T15:48:06;5.87;;;2.50;;
19679;SDS011;9989;48.962;9.182;2023-04-03T15:50:33;6.03;;;3.00;;
19679;SDS011;9989;48.962;9.182;2023-04-03T15:52:59;6.73;;;2.37;;
19679;SDS011;9989;48.962;9.182;2023-04-03T15:55:27;6.47;;;2.83;;
19679;SDS011;9989;48.962;9.182;2023-04-03T15:57:54;4.83;;;2.30;;
19679;SDS011;9989;48.962;9.182;2023-04-03T16:00:20;6.30;;;2.70;;
19679;SDS011;9989;48.962;9.182;2023-04-03T16:02:47;9.23;;;2.77;;
19679;SDS011;9989;48.962;9.182;2023-04-03T16:05:16;7.13;;;2.33;;
19679;SDS011;9989;48.962;9.182;2023-04-03T16:07:42;6.63;;;2.70;;
19679;SDS011;9989;48.962;9.182;2023-04-03T16:10:09;5.40;;;2.20;;
19679;SDS011;9989;48.962;9.182;2023-04-03T16:12:35;5.83;;;2.67;;
19679;SDS011;9989;48.962;9.182;2023-04-03T16:15:01;6.83;;;2.97;;
19679;SDS011;9989;48.962;9.182;2023-04-03T16:17:28;6.40;;;2.70;;
19679;SDS011;9989;48.962;9.182;2023-04-03T16:19:55;5.27;;;2.70;;
19679;SDS011;9989;48.962;9.182;2023-04-03T16:22:21;6.00;;;2.57;;
19679;SDS011;9989;48.962;9.182;2023-04-03T16:24:48;6.93;;;2.60;;
19679;SDS011;9989;48.962;9.182;2023-04-03T16:27:14;6.97;;;2.87;;
19679;SDS011;9989;48.962;9.182;2023-04-03T16:29:40;8.27;;;3.80;;
19679;SDS011;9989;48.962;9.182;2023-04-03T16:32:06;8.97;;;4.40;;
19679;SDS011;9989;48.962;9.182;2023-04-03T16:34:35;9.63;;;3.97;;
19679;SDS011;9989;48.962;9.182;2023-04-03T16:37:00;7.67;;;3.10;;
19679;SDS011;9989;48.962;9.182;2023-04-03T16:39:26;9.93;;;4.33;;
19679;SDS011;9989;48.962;9.182;2023-04-03T16:41:52;9.00;;;4.20;;
19679;SDS011;9989;48.962;9.182;2023-04-03T16:44:17;7.23;;;3.50;;
19679;SDS011;9989;48.962;9.182;2023-04-03T16:46:43;5.83;;;2.80;;
19679;SDS011;9989;48.962;9.182;2023-04-03T16:49:09;6.30;;;2.90;;
19679;SDS011;9989;48.962;9.182;2023-04-03T16:51:35;7.43;;;3.20;;
19679;SDS011;9989;48.962;9.182;2023-04-03T16:54:00;7.40;;;3.47;;
19679;SDS011;9989;48.962;9.182;2023-04-03T16:56:26;8.23;;;3.63;;
19679;SDS011;9989;48.962;9.182;2023-04-03T16:58:52;9.87;;;4.60;;
19679;SDS011;9989;48.962;9.182;2023-04-03T17:01:19;10.60;;;4.63;;
19679;SDS011;9989;48.962;9.182;2023-04-03T17:03:46;14.93;;;7.23;;
19679;SDS011;9989;48.962;9.182;2023-04-03T17:06:15;8.10;;;3.50;;
19679;SDS011;9989;48.962;9.182;2023-04-03T17:08:43;9.33;;;3.90;;
19679;SDS011;9989;48.962;9.182;2023-04-03T17:11:09;7.97;;;3.40;;
19679;SDS011;9989;48.962;9.182;2023-04-03T17:13:35;7.60;;;3.30;;
19679;SDS011;9989;48.962;9.182;2023-04-03T17:16:01;9.70;;;3.87;;
19679;SDS011;9989;48.962;9.182;2023-04-03T17:18:31;7.00;;;3.57;;
19679;SDS011;9989;48.962;9.182;2023-04-03T17:20:57;8.83;;;4.33;;
19679;SDS011;9989;48.962;9.182;2023-04-03T17:23:24;9.17;;;3.87;;